createdAt,value
2024-01-15T00:04:22.659Z,7.60
2024-01-15T00:09:29.910Z,8.00
2024-01-15T00:14:37.035Z,6.20
2024-01-15T00:19:44.110Z,8.80
2024-01-15T00:24:51.396Z,8.90
2024-01-15T00:29:58.500Z,7.60
2024-01-15T00:35:05.833Z,10.20
2024-01-15T00:40:13.507Z,9.10
2024-01-15T00:45:20.775Z,8.70
2024-01-15T00:50:27.816Z,10.20
2024-01-15T00:55:34.827Z,9.70
2024-01-15T01:00:42.103Z,10.00
2024-01-15T01:05:51.110Z,9.30
2024-01-15T01:10:59.804Z,7.80
2024-01-15T01:16:07.314Z,9.30
2024-01-15T01:21:14.313Z,9.20
2024-01-15T01:26:21.322Z,9.20
2024-01-15T01:31:29.456Z,8.30
2024-01-15T01:36:36.720Z,9.50
2024-01-15T01:41:43.723Z,6.60
2024-01-15T01:46:50.850Z,7.00
2024-01-15T01:52:02.184Z,7.00
2024-01-15T01:57:11.067Z,6.00
2024-01-15T02:02:18.873Z,7.60
2024-01-15T02:07:26.710Z,7.90
2024-01-15T02:12:34.042Z,8.10
2024-01-15T02:18:00.824Z,7.70
2024-01-15T02:23:12.679Z,8.50
2024-01-15T02:28:20.757Z,6.90
2024-01-15T02:38:33.628Z,7.40
2024-01-15T02:43:40.669Z,6.50
2024-01-15T02:48:47.839Z,6.00
2024-01-15T02:53:54.933Z,7.40
2024-01-15T02:59:02.028Z,7.10
2024-01-15T03:04:09.336Z,7.10
2024-01-15T03:09:16.542Z,7.30
2024-01-15T03:14:25.993Z,7.00
2024-01-15T03:19:33.084Z,7.80
2024-01-15T03:24:40.159Z,8.50
2024-01-15T03:29:47.542Z,8.60
2024-01-15T03:34:54.638Z,9.90
2024-01-15T03:40:01.891Z,9.90
2024-01-15T03:45:10.074Z,10.30
2024-01-15T03:50:17.703Z,9.70
2024-01-15T03:55:24.689Z,10.10
2024-01-15T04:00:31.869Z,9.70
2024-01-15T04:05:39.119Z,8.70
2024-01-15T04:10:46.802Z,7.80
2024-01-15T04:15:54.101Z,10.20
2024-01-15T04:21:01.271Z,9.00
2024-01-15T04:26:08.565Z,9.10
2024-01-15T04:31:24.575Z,6.90
2024-01-15T04:36:31.765Z,8.20
2024-01-15T04:41:39.007Z,6.10
2024-01-15T04:46:46.137Z,7.00
2024-01-15T04:51:53.210Z,4.80
2024-01-15T04:57:00.248Z,4.00
2024-01-15T05:02:07.414Z,4.70
2024-01-15T05:07:14.862Z,5.30
2024-01-15T05:12:21.919Z,4.30
2024-01-15T05:17:29.024Z,5.60
2024-01-15T05:22:36.204Z,4.50
2024-01-15T05:27:43.299Z,2.70
2024-01-15T05:32:50.678Z,3.10
2024-01-15T05:37:57.726Z,3.30
2024-01-15T05:43:04.819Z,2.50
2024-01-15T05:48:12.090Z,3.70
2024-01-15T05:53:19.145Z,3.80
2024-01-15T05:58:26.178Z,2.50
2024-01-15T06:03:33.366Z,3.10
2024-01-15T06:08:41.409Z,2.40
2024-01-15T06:18:54.435Z,2.30
2024-01-15T06:24:01.529Z,2.50
2024-01-15T06:29:09.037Z,2.30
2024-01-15T06:34:17.499Z,3.20
2024-01-15T06:39:24.800Z,3.80
2024-01-15T06:44:31.947Z,3.40
2024-01-15T06:49:39.457Z,3.50
2024-01-15T06:54:46.904Z,4.10
2024-01-15T06:59:53.858Z,4.80
2024-01-15T07:05:01.053Z,5.10
2024-01-15T07:10:10.199Z,5.40
2024-01-15T07:15:17.454Z,5.50
2024-01-15T07:20:24.757Z,3.00
2024-01-15T07:25:31.934Z,6.00
2024-01-15T07:30:40.480Z,6.30
2024-01-15T07:35:47.917Z,5.80
2024-01-15T07:40:55.119Z,5.90
2024-01-15T07:46:02.388Z,6.10
2024-01-15T07:51:09.993Z,5.60
2024-01-15T07:56:17.279Z,3.90
2024-01-15T08:01:24.398Z,5.10
2024-01-15T08:06:31.725Z,6.20
2024-01-15T08:11:41.543Z,6.90
2024-01-15T08:16:48.718Z,7.00
2024-01-15T08:21:56.000Z,7.00
2024-01-15T08:27:03.234Z,6.50
2024-01-15T08:32:15.138Z,6.70
2024-01-15T08:37:22.331Z,4.80
2024-01-15T08:42:29.655Z,6.60
2024-01-15T08:47:37.093Z,6.60
2024-01-15T08:52:44.262Z,7.30
2024-01-15T08:57:52.052Z,3.90
2024-01-15T09:02:59.244Z,5.40
2024-01-15T09:08:06.838Z,6.60
2024-01-15T09:13:13.850Z,5.80
2024-01-15T09:18:21.110Z,5.40
2024-01-15T09:23:29.770Z,3.70
2024-01-15T09:28:37.235Z,4.60
2024-01-15T09:33:44.392Z,5.00
2024-01-15T09:38:51.495Z,5.70
2024-01-15T09:43:58.704Z,5.50
2024-01-15T09:49:06.240Z,5.70
2024-01-15T09:54:14.790Z,5.30
2024-01-15T09:59:22.825Z,4.10
2024-01-15T10:04:30.180Z,2.40
2024-01-15T10:09:37.393Z,2.40
2024-01-15T10:14:47.170Z,2.90
2024-01-15T10:19:54.303Z,3.10
2024-01-15T10:25:01.611Z,3.00
2024-01-15T10:30:10.749Z,4.20
2024-01-15T10:35:17.899Z,4.00
2024-01-15T10:40:25.177Z,3.00
2024-01-15T10:45:32.440Z,2.90
2024-01-15T10:50:40.014Z,2.50
2024-01-15T10:55:49.974Z,2.40
2024-01-15T11:00:58.026Z,2.60
2024-01-15T11:06:05.992Z,3.50
2024-01-15T11:11:13.096Z,2.80
2024-01-15T11:16:20.405Z,3.40
2024-01-15T11:21:31.240Z,1.60
2024-01-15T11:26:45.653Z,2.80
2024-01-15T11:32:04.069Z,2.00
2024-01-15T11:37:11.220Z,2.20
2024-01-15T11:42:29.685Z,2.30
2024-01-15T11:48:11.285Z,1.70
2024-01-15T11:53:36.416Z,2.50
2024-01-15T11:58:44.229Z,2.90
2024-01-15T12:03:52.671Z,1.90
2024-01-15T12:09:11.631Z,1.00
2024-01-15T12:14:18.747Z,2.40
2024-01-15T12:19:26.041Z,1.50
2024-01-15T12:24:33.528Z,1.50
2024-01-15T12:29:41.934Z,0.90
2024-01-15T12:34:49.096Z,1.20
2024-01-15T12:39:57.354Z,0.80
2024-01-15T12:45:05.592Z,0.50
2024-01-15T12:50:19.559Z,0.90
2024-01-15T12:55:27.988Z,1.10
2024-01-15T13:00:35.175Z,1.70
2024-01-15T13:05:43.261Z,0.90
2024-01-15T13:10:50.519Z,1.40
2024-01-15T13:15:57.757Z,1.60
2024-01-15T13:21:05.935Z,0.90
2024-01-15T13:26:13.697Z,1.70
2024-01-15T13:31:22.039Z,1.30
2024-01-15T13:36:29.383Z,1.10
2024-01-15T13:41:36.652Z,1.00
2024-01-15T13:46:44.017Z,1.60
2024-01-15T13:51:51.261Z,0.90
2024-01-15T13:56:58.394Z,1.40
2024-01-15T14:02:06.720Z,1.30
2024-01-15T14:07:14.309Z,1.60
2024-01-15T14:12:21.494Z,1.20
2024-01-15T14:17:28.625Z,0.80
2024-01-15T14:22:35.819Z,0.60
2024-01-15T14:27:43.354Z,0.50
2024-01-15T14:32:51.094Z,0.90
2024-01-15T14:37:59.681Z,1.20
2024-01-15T14:43:07.505Z,0.80
2024-01-15T14:48:15.043Z,1.50
2024-01-15T14:53:22.801Z,1.10
2024-01-15T14:58:29.926Z,1.00
2024-01-15T15:03:42.140Z,1.70
2024-01-15T15:08:52.602Z,1.20
2024-01-15T15:14:01.581Z,1.10
2024-01-15T15:24:14.525Z,0.80
2024-01-15T15:29:21.652Z,1.60
2024-01-15T15:34:28.787Z,0.80
2024-01-15T15:39:36.001Z,1.10
2024-01-15T15:44:47.912Z,1.20
2024-01-15T15:49:55.806Z,1.10
2024-01-15T15:55:04.020Z,1.00
2024-01-15T16:00:13.057Z,1.80
2024-01-15T16:05:21.204Z,1.20
2024-01-15T16:10:31.245Z,1.60
2024-01-15T16:15:38.880Z,1.80
2024-01-15T16:23:32.678Z,1.40
2024-01-15T16:26:14.336Z,1.00
2024-01-15T16:31:23.115Z,1.00
2024-01-15T16:36:30.230Z,1.40
2024-01-15T16:41:37.505Z,1.60
2024-01-15T16:46:45.140Z,0.60
2024-01-15T16:51:52.410Z,0.70
2024-01-15T16:57:00.563Z,1.20
2024-01-15T17:07:15.059Z,1.30
2024-01-15T17:12:22.095Z,0.60
2024-01-15T17:17:29.928Z,1.10
2024-01-15T17:22:37.773Z,0.80
2024-01-15T17:27:45.176Z,1.00
2024-01-15T17:32:52.413Z,0.80
2024-01-15T17:37:59.644Z,0.90
2024-01-15T17:43:07.804Z,0.90
2024-01-15T17:48:15.207Z,0.90
2024-01-15T17:53:22.482Z,1.20
2024-01-15T17:58:29.819Z,1.00
2024-01-15T18:03:37.085Z,0.90
2024-01-15T18:08:45.655Z,1.10
2024-01-15T18:13:52.838Z,1.20
2024-01-15T18:19:00.357Z,0.90
2024-01-15T18:24:08.429Z,1.00
2024-01-15T18:29:15.676Z,0.60
2024-01-15T18:34:22.901Z,1.00
2024-01-15T18:39:30.664Z,1.70
2024-01-15T18:44:38.100Z,0.90
2024-01-15T18:49:46.478Z,0.70
2024-01-15T18:59:59.309Z,1.30
2024-01-15T19:05:07.412Z,1.30
2024-01-15T19:10:14.646Z,0.90
2024-01-15T19:15:22.030Z,1.00
2024-01-15T19:20:29.675Z,1.30
2024-01-15T19:25:38.818Z,1.00
2024-01-15T19:30:46.096Z,1.00
2024-01-15T19:35:53.702Z,1.30
2024-01-15T19:41:00.913Z,0.40
2024-01-15T19:46:09.951Z,0.90
2024-01-15T19:51:17.324Z,1.20
2024-01-15T19:56:24.521Z,0.70
2024-01-15T20:01:33.492Z,1.30
2024-01-15T20:06:40.782Z,1.30
2024-01-15T20:11:48.141Z,1.20
2024-01-15T20:16:55.406Z,1.50
2024-01-15T20:22:03.020Z,1.70
2024-01-15T20:27:10.368Z,1.10
2024-01-15T20:32:19.568Z,0.70
2024-01-15T20:37:28.172Z,0.80
2024-01-15T20:42:35.610Z,1.30
2024-01-15T20:47:43.169Z,1.10
2024-01-15T20:52:50.486Z,1.80
2024-01-15T20:57:57.880Z,2.10
2024-01-15T21:03:05.618Z,1.50
2024-01-15T21:13:19.696Z,1.20
2024-01-15T21:18:27.278Z,1.10
2024-01-15T21:23:34.536Z,1.40
2024-01-15T21:28:41.778Z,1.20
2024-01-15T21:33:49.762Z,1.00
2024-01-15T21:38:57.052Z,1.40
2024-01-15T21:44:07.688Z,1.60
2024-01-15T21:49:15.054Z,1.30
2024-01-15T21:54:22.200Z,1.40
2024-01-15T21:59:30.181Z,1.50
2024-01-15T22:04:38.618Z,1.20
2024-01-15T22:09:45.798Z,1.50
2024-01-15T22:14:53.051Z,1.40
2024-01-15T22:20:00.380Z,0.70
2024-01-15T22:25:09.103Z,1.30
2024-01-15T22:30:16.513Z,1.30
2024-01-15T22:35:24.073Z,0.80
2024-01-15T22:40:33.011Z,0.90
2024-01-15T22:45:40.293Z,0.60
2024-01-15T22:50:47.724Z,0.70
2024-01-15T22:55:54.800Z,0.60
2024-01-15T23:01:03.125Z,0.30
2024-01-15T23:06:20.728Z,0.30
2024-01-15T23:11:27.951Z,0.80
2024-01-15T23:16:35.409Z,0.90
2024-01-15T23:21:42.560Z,0.60
2024-01-15T23:26:49.784Z,0.70
2024-01-15T23:31:57.967Z,0.60
2024-01-15T23:37:05.570Z,0.90
2024-01-15T23:42:15.213Z,0.60
2024-01-15T23:47:22.823Z,0.70
2024-01-15T23:52:30.009Z,1.10
2024-01-15T23:57:37.179Z,1.10
